Time;durP1;ratioP1;P1;durP2;ratioP2;P2;SDS_P1;SDS_P2;PMS_P1;PMS_P2;Temp;Humidity;BMP_temperature;BMP_pressure;BME280_temperature;BME280_humidity;BME280_pressure;Samples;Min_cycle;Max_cycle;Signal;HPM_P1;HPM_P2
2023/04/23 00:00:41;;;;;;;37.75;27.42;;;;;;;;;;5037335;28;20428;-70
2023/04/23 00:03:11;;;;;;;35.65;27.65;;;;;;;;;;5055663;28;20132;-70
2023/04/23 00:05:38;;;;;;;40.88;27.77;;;;;;;;;;5030901;28;20121;-70
2023/04/23 00:08:04;;;;;;;38.30;28.45;;;;;;;;;;5053288;28;20048;-70
2023/04/23 00:10:31;;;;;;;41.95;28.85;;;;;;;;;;5054995;28;20048;-71
2023/04/23 00:12:57;;;;;;;53.17;30.73;;;;;;;;;;5054781;28;20049;-70
2023/04/23 00:15:23;;;;;;;61.67;32.47;;;;;;;;;;5035591;28;20512;-70
2023/04/23 00:17:49;;;;;;;78.47;29.98;;;;;;;;;;5037702;28;20367;-70
2023/04/23 00:20:16;;;;;;;85.40;30.67;;;;;;;;;;5054938;28;20045;-70
2023/04/23 00:22:42;;;;;;;72.97;30.58;;;;;;;;;;5037360;28;20436;-69
2023/04/23 00:25:09;;;;;;;73.95;31.60;;;;;;;;;;5054604;28;20080;-70
2023/04/23 00:27:35;;;;;;;129.30;32.53;;;;;;;;;;5055333;28;20049;-70
2023/04/23 00:30:02;;;;;;;50.67;29.80;;;;;;;;;;5053870;28;20057;-69
2023/04/23 00:32:28;;;;;;;46.78;28.70;;;;;;;;;;5053383;28;20057;-70
2023/04/23 00:34:55;;;;;;;66.82;30.58;;;;;;;;;;5036723;28;20049;-69
2023/04/23 00:37:21;;;;;;;74.25;31.17;;;;;;;;;;5054669;28;20060;-69
2023/04/23 00:39:47;;;;;;;49.83;29.92;;;;;;;;;;5053710;28;20115;-70
2023/04/23 00:42:16;;;;;;;39.40;29.00;;;;;;;;;;5054440;28;20481;-70
2023/04/23 00:44:42;;;;;;;49.22;31.75;;;;;;;;;;5054581;28;20049;-70
2023/04/23 00:47:08;;;;;;;45.97;30.88;;;;;;;;;;5054780;28;20401;-70
2023/04/23 00:49:34;;;;;;;46.20;31.52;;;;;;;;;;5028772;28;20045;-71
2023/04/23 00:52:00;;;;;;;48.55;30.63;;;;;;;;;;5052309;28;20041;-71
2023/04/23 00:54:27;;;;;;;46.92;30.27;;;;;;;;;;5054450;28;20047;-71
2023/04/23 00:56:53;;;;;;;48.55;30.02;;;;;;;;;;5036530;28;20057;-71
2023/04/23 00:59:19;;;;;;;40.85;28.95;;;;;;;;;;5036494;28;20520;-71
2023/04/23 01:01:45;;;;;;;43.13;28.25;;;;;;;;;;5054168;28;20047;-71
2023/04/23 01:04:14;;;;;;;43.65;29.77;;;;;;;;;;5036365;28;20053;-71
2023/04/23 01:06:41;;;;;;;42.58;29.23;;;;;;;;;;5036384;28;20378;-71
2023/04/23 01:09:11;;;;;;;47.83;32.00;;;;;;;;;;5054265;28;20110;-71
2023/04/23 01:11:42;;;;;;;46.28;30.63;;;;;;;;;;5035717;28;20095;-71
2023/04/23 01:14:09;;;;;;;45.90;28.20;;;;;;;;;;5019996;28;20083;-70
2023/04/23 01:16:37;;;;;;;44.17;29.30;;;;;;;;;;5054099;28;20045;-70
2023/04/23 01:19:05;;;;;;;46.10;30.13;;;;;;;;;;5052963;28;20084;-70
2023/04/23 01:21:32;;;;;;;46.03;29.92;;;;;;;;;;5053304;28;20095;-70
2023/04/23 01:23:58;;;;;;;41.92;29.30;;;;;;;;;;5053597;28;20048;-70
2023/04/23 01:26:24;;;;;;;45.25;30.23;;;;;;;;;;5051614;28;20037;-70
2023/04/23 01:28:51;;;;;;;46.17;29.65;;;;;;;;;;5053928;28;20433;-71
2023/04/23 01:31:17;;;;;;;42.58;29.20;;;;;;;;;;5053517;28;20057;-69
2023/04/23 01:33:44;;;;;;;41.15;28.30;;;;;;;;;;5053593;28;20060;-69
2023/04/23 01:36:10;;;;;;;44.80;29.73;;;;;;;;;;5053594;28;20505;-70
2023/04/23 01:38:37;;;;;;;43.60;28.55;;;;;;;;;;5053592;28;20037;-69
2023/04/23 01:41:04;;;;;;;47.17;29.20;;;;;;;;;;5035855;28;20041;-70
2023/04/23 01:43:31;;;;;;;44.50;29.55;;;;;;;;;;5053625;28;20044;-70
2023/04/23 01:45:58;;;;;;;44.92;29.55;;;;;;;;;;5053419;28;20053;-70
2023/04/23 01:48:24;;;;;;;43.60;29.45;;;;;;;;;;5053639;28;20056;-70
2023/04/23 01:50:50;;;;;;;45.88;30.38;;;;;;;;;;5052756;28;20048;-70
2023/04/23 01:53:17;;;;;;;44.17;30.13;;;;;;;;;;5050429;28;20083;-70
2023/04/23 01:55:45;;;;;;;46.45;30.40;;;;;;;;;;5047835;28;20075;-70
2023/04/23 01:58:11;;;;;;;47.05;31.40;;;;;;;;;;5053192;28;20049;-70
2023/04/23 02:00:37;;;;;;;46.72;31.50;;;;;;;;;;5033329;28;20099;-70
2023/04/23 02:03:03;;;;;;;47.33;32.05;;;;;;;;;;5052918;28;20037;-70
2023/04/23 02:05:29;;;;;;;54.53;34.20;;;;;;;;;;5035036;28;20057;-70
2023/04/23 02:07:56;;;;;;;51.75;34.33;;;;;;;;;;5052939;28;20045;-70
2023/04/23 02:10:22;;;;;;;51.05;33.65;;;;;;;;;;5034329;28;20045;-70
2023/04/23 02:12:48;;;;;;;54.13;35.30;;;;;;;;;;5053174;28;20090;-70
2023/04/23 02:15:15;;;;;;;53.47;34.70;;;;;;;;;;5053037;28;20048;-69
2023/04/23 02:17:41;;;;;;;55.60;35.90;;;;;;;;;;5031262;28;20449;-70
2023/04/23 02:20:08;;;;;;;52.78;35.58;;;;;;;;;;5030993;28;20049;-70
2023/04/23 02:22:35;;;;;;;55.25;36.28;;;;;;;;;;5034835;28;20523;-70
2023/04/23 02:25:01;;;;;;;61.30;37.72;;;;;;;;;;5052263;28;20080;-69
2023/04/23 02:27:27;;;;;;;61.00;38.40;;;;;;;;;;5052491;28;20386;-70
2023/04/23 02:29:53;;;;;;;59.13;39.33;;;;;;;;;;5052529;28;20048;-69
2023/04/23 02:32:19;;;;;;;63.53;39.60;;;;;;;;;;5052266;28;20052;-70
2023/04/23 02:34:45;;;;;;;65.70;39.88;;;;;;;;;;5051529;28;20076;-70
2023/04/23 02:37:11;;;;;;;62.60;38.55;;;;;;;;;;5052482;28;20075;-69
2023/04/23 02:39:37;;;;;;;65.80;39.63;;;;;;;;;;5051599;28;20132;-70
2023/04/23 02:42:04;;;;;;;69.75;41.00;;;;;;;;;;5052486;28;20497;-69
2023/04/23 02:44:30;;;;;;;66.10;40.72;;;;;;;;;;5051984;28;20123;-70
2023/04/23 02:46:56;;;;;;;65.88;41.05;;;;;;;;;;5052858;28;20049;-70
2023/04/23 02:49:22;;;;;;;70.78;40.88;;;;;;;;;;5046793;28;20063;-69
2023/04/23 02:51:48;;;;;;;69.45;41.58;;;;;;;;;;5033742;28;20056;-70
2023/04/23 02:54:14;;;;;;;73.35;43.17;;;;;;;;;;5041587;28;20030;-70
2023/04/23 02:56:40;;;;;;;77.95;44.65;;;;;;;;;;5032461;28;20049;-69
2023/04/23 02:59:07;;;;;;;75.07;44.17;;;;;;;;;;5012915;28;20041;-69
2023/04/23 03:01:33;;;;;;;75.78;46.42;;;;;;;;;;5039922;28;20037;-69
2023/04/23 03:03:59;;;;;;;76.22;44.70;;;;;;;;;;5049729;28;20045;-69
2023/04/23 03:06:26;;;;;;;80.57;45.28;;;;;;;;;;5056179;28;20047;-69
2023/04/23 03:08:52;;;;;;;79.53;44.53;;;;;;;;;;5038865;28;20428;-70
2023/04/23 03:11:18;;;;;;;77.38;44.15;;;;;;;;;;5056117;28;20052;-70
2023/04/23 03:13:44;;;;;;;76.22;43.05;;;;;;;;;;5038753;28;20450;-70
2023/04/23 03:16:10;;;;;;;83.10;44.90;;;;;;;;;;5056110;28;20084;-70
2023/04/23 03:18:36;;;;;;;76.30;43.35;;;;;;;;;;5055074;28;20501;-71
2023/04/23 03:21:02;;;;;;;82.90;43.80;;;;;;;;;;5056000;28;20055;-70
2023/04/23 03:23:29;;;;;;;71.45;41.45;;;;;;;;;;5038289;28;20040;-71
2023/04/23 03:25:55;;;;;;;74.13;42.30;;;;;;;;;;5054167;28;20053;-70
2023/04/23 03:28:21;;;;;;;75.00;41.20;;;;;;;;;;5056288;28;20106;-70
2023/04/23 03:30:47;;;;;;;80.10;42.75;;;;;;;;;;5055685;28;20052;-71
2023/04/23 03:33:13;;;;;;;73.30;39.45;;;;;;;;;;5053415;28;20053;-70
2023/04/23 03:35:39;;;;;;;80.32;43.90;;;;;;;;;;5055186;28;20048;-70
2023/04/23 03:38:05;;;;;;;78.00;42.05;;;;;;;;;;5021484;28;20033;-70
2023/04/23 03:40:31;;;;;;;86.68;42.67;;;;;;;;;;5055674;28;20045;-70
2023/04/23 03:42:57;;;;;;;84.68;42.88;;;;;;;;;;5055712;28;20037;-70
2023/04/23 03:45:23;;;;;;;81.78;43.78;;;;;;;;;;5051214;28;20474;-71
2023/04/23 03:47:49;;;;;;;84.82;43.42;;;;;;;;;;5053594;28;20041;-70
2023/04/23 03:50:16;;;;;;;91.45;45.78;;;;;;;;;;5055250;28;20044;-71
2023/04/23 03:52:42;;;;;;;80.68;43.60;;;;;;;;;;5055476;28;20096;-70
2023/04/23 03:55:08;;;;;;;82.13;42.50;;;;;;;;;;5055455;28;20044;-70
2023/04/23 03:57:35;;;;;;;95.05;47.50;;;;;;;;;;5055819;28;20405;-70
2023/04/23 04:00:02;;;;;;;96.07;45.55;;;;;;;;;;5037642;28;20124;-71
2023/04/23 04:02:28;;;;;;;95.47;48.28;;;;;;;;;;5055055;28;20041;-71
2023/04/23 04:04:55;;;;;;;94.05;49.40;;;;;;;;;;5053579;28;20045;-70
2023/04/23 04:07:21;;;;;;;98.65;47.60;;;;;;;;;;5055044;28;20048;-70
2023/04/23 04:09:48;;;;;;;98.82;49.95;;;;;;;;;;5037325;28;20045;-70
2023/04/23 04:12:15;;;;;;;101.03;49.28;;;;;;;;;;5034244;28;20054;-70
2023/04/23 04:14:41;;;;;;;119.07;53.03;;;;;;;;;;5020816;28;20087;-70
2023/04/23 04:17:07;;;;;;;106.30;52.28;;;;;;;;;;5037394;28;20049;-69
2023/04/23 04:19:33;;;;;;;110.85;52.17;;;;;;;;;;5055287;28;20085;-70
2023/04/23 04:22:01;;;;;;;114.72;53.05;;;;;;;;;;5037170;28;20139;-70
2023/04/23 04:24:27;;;;;;;111.28;52.88;;;;;;;;;;5054911;28;20049;-70
2023/04/23 04:26:54;;;;;;;110.15;51.42;;;;;;;;;;5055332;28;20481;-70
2023/04/23 04:29:20;;;;;;;111.30;54.03;;;;;;;;;;5037112;28;20056;-70
2023/04/23 04:31:46;;;;;;;112.80;53.20;;;;;;;;;;5054632;28;20048;-71
2023/04/23 04:34:13;;;;;;;108.80;51.85;;;;;;;;;;5055035;28;20401;-70
2023/04/23 04:36:41;;;;;;;126.80;54.45;;;;;;;;;;5055002;28;20083;-70
2023/04/23 04:39:08;;;;;;;115.20;54.97;;;;;;;;;;5054645;28;20049;-71
2023/04/23 04:41:34;;;;;;;109.80;53.17;;;;;;;;;;5036419;28;20052;-71
2023/04/23 04:44:00;;;;;;;108.55;54.50;;;;;;;;;;5036726;28;20459;-70
2023/04/23 04:46:27;;;;;;;107.45;53.75;;;;;;;;;;5036680;28;20147;-70
2023/04/23 04:48:54;;;;;;;106.85;54.25;;;;;;;;;;5054457;28;20110;-71
2023/04/23 04:51:20;;;;;;;104.47;51.63;;;;;;;;;;5050617;28;20041;-70
2023/04/23 04:53:46;;;;;;;103.95;52.10;;;;;;;;;;5047446;28;20053;-70
2023/04/23 04:56:12;;;;;;;99.75;48.97;;;;;;;;;;5034450;28;20081;-70
2023/04/23 04:58:39;;;;;;;96.00;48.03;;;;;;;;;;5034681;28;20049;-70
2023/04/23 05:01:05;;;;;;;98.05;49.80;;;;;;;;;;5033938;28;20569;-70
2023/04/23 05:03:31;;;;;;;92.70;47.90;;;;;;;;;;5016973;28;20371;-70
2023/04/23 05:05:57;;;;;;;91.38;48.03;;;;;;;;;;5034240;28;20129;-70
2023/04/23 05:08:24;;;;;;;89.13;48.08;;;;;;;;;;5016387;28;20506;-70
2023/04/23 05:10:50;;;;;;;90.38;45.38;;;;;;;;;;5034017;28;20049;-70
2023/04/23 05:13:16;;;;;;;88.65;49.05;;;;;;;;;;5034157;28;20048;-70
2023/04/23 05:15:43;;;;;;;83.90;43.90;;;;;;;;;;5016416;28;20131;-71
2023/04/23 05:18:10;;;;;;;88.10;45.97;;;;;;;;;;5016696;28;20099;-70
2023/04/23 05:20:36;;;;;;;83.88;44.85;;;;;;;;;;5016034;28;20045;-70
2023/04/23 05:23:03;;;;;;;90.82;48.80;;;;;;;;;;5016159;28;20494;-69
2023/04/23 05:25:29;;;;;;;82.97;45.25;;;;;;;;;;5033627;28;20486;-69
2023/04/23 05:27:56;;;;;;;83.43;45.25;;;;;;;;;;5033674;28;20069;-70
2023/04/23 05:30:22;;;;;;;82.15;44.85;;;;;;;;;;5032554;28;20045;-70
2023/04/23 05:32:48;;;;;;;82.85;45.83;;;;;;;;;;5028484;28;20498;-70
2023/04/23 05:35:15;;;;;;;86.30;46.17;;;;;;;;;;5033492;28;20060;-70
2023/04/23 05:37:41;;;;;;;84.25;45.83;;;;;;;;;;5033735;28;20042;-70
2023/04/23 05:40:08;;;;;;;75.15;44.25;;;;;;;;;;5033469;28;20459;-69
2023/04/23 05:42:34;;;;;;;81.13;46.13;;;;;;;;;;5032210;28;20085;-70
2023/04/23 05:45:00;;;;;;;81.60;46.00;;;;;;;;;;5033572;28;20563;-70
2023/04/23 05:47:28;;;;;;;79.85;44.38;;;;;;;;;;5035506;28;20098;-69
2023/04/23 05:49:57;;;;;;;80.32;46.28;;;;;;;;;;5053123;28;20059;-69
2023/04/23 05:52:23;;;;;;;81.78;45.88;;;;;;;;;;5035933;28;20412;-70
2023/04/23 05:54:50;;;;;;;80.13;45.10;;;;;;;;;;5052345;28;20041;-70
2023/04/23 05:57:16;;;;;;;74.88;45.05;;;;;;;;;;5053531;28;20106;-70
2023/04/23 05:59:42;;;;;;;81.30;46.33;;;;;;;;;;5052965;28;20043;-71
2023/04/23 06:02:09;;;;;;;83.60;45.42;;;;;;;;;;5053156;28;20119;-70
2023/04/23 06:04:36;;;;;;;76.65;43.85;;;;;;;;;;5052947;28;20037;-70
2023/04/23 06:07:02;;;;;;;80.90;46.10;;;;;;;;;;5053337;28;20073;-69
2023/04/23 06:09:28;;;;;;;81.18;46.53;;;;;;;;;;5052886;28;20052;-70
2023/04/23 06:11:54;;;;;;;86.60;48.08;;;;;;;;;;5047834;28;20041;-69
2023/04/23 06:14:23;;;;;;;90.35;48.53;;;;;;;;;;5053196;28;20071;-69
2023/04/23 06:16:49;;;;;;;90.82;48.58;;;;;;;;;;5035044;28;20041;-70
2023/04/23 06:19:15;;;;;;;90.70;47.95;;;;;;;;;;5034907;28;20135;-70
2023/04/23 06:21:41;;;;;;;87.18;48.67;;;;;;;;;;5052664;28;20046;-70
2023/04/23 06:24:07;;;;;;;93.10;49.78;;;;;;;;;;5052721;28;20449;-74
2023/04/23 06:26:33;;;;;;;83.30;47.58;;;;;;;;;;5052527;28;20049;-74
2023/04/23 06:29:00;;;;;;;87.07;48.40;;;;;;;;;;5046864;28;20045;-74
2023/04/23 06:31:26;;;;;;;86.75;48.47;;;;;;;;;;5043744;28;20541;-74
2023/04/23 06:33:52;;;;;;;79.95;46.72;;;;;;;;;;5051970;28;20099;-74
2023/04/23 06:36:18;;;;;;;86.15;49.33;;;;;;;;;;5050664;28;20087;-74
2023/04/23 06:38:44;;;;;;;83.10;48.55;;;;;;;;;;5045237;28;20465;-74
2023/04/23 06:41:11;;;;;;;81.53;46.80;;;;;;;;;;5052540;28;20486;-75
2023/04/23 06:43:38;;;;;;;80.30;46.90;;;;;;;;;;5052825;28;20053;-74
2023/04/23 06:46:04;;;;;;;77.00;46.00;;;;;;;;;;5049338;28;20049;-74
2023/04/23 06:48:31;;;;;;;77.35;45.45;;;;;;;;;;5044965;28;20072;-74
2023/04/23 06:50:57;;;;;;;77.43;46.60;;;;;;;;;;5052001;28;20095;-75
2023/04/23 06:53:23;;;;;;;77.93;46.50;;;;;;;;;;5043666;28;20432;-75
2023/04/23 06:55:50;;;;;;;74.57;43.85;;;;;;;;;;5052468;28;20140;-74
2023/04/23 06:58:17;;;;;;;68.13;42.45;;;;;;;;;;5052613;28;20107;-74
2023/04/23 07:00:43;;;;;;;72.15;44.22;;;;;;;;;;5052205;28;20483;-74
2023/04/23 07:03:09;;;;;;;68.43;42.53;;;;;;;;;;5049817;28;20043;-74
2023/04/23 07:05:35;;;;;;;73.68;44.25;;;;;;;;;;5044617;28;20470;-74
2023/04/23 07:08:01;;;;;;;69.53;41.85;;;;;;;;;;5051895;28;20103;-74
2023/04/23 07:10:27;;;;;;;68.38;43.08;;;;;;;;;;5034477;28;20049;-74
2023/04/23 07:12:53;;;;;;;68.13;41.13;;;;;;;;;;5052335;28;20049;-74
2023/04/23 07:15:19;;;;;;;66.40;40.65;;;;;;;;;;5052077;28;20077;-74
2023/04/23 07:17:45;;;;;;;66.40;40.40;;;;;;;;;;5052685;28;20049;-75
2023/04/23 07:20:11;;;;;;;59.97;38.78;;;;;;;;;;5050045;28;20105;-74
2023/04/23 07:22:37;;;;;;;63.75;39.30;;;;;;;;;;5045404;28;20444;-75
2023/04/23 07:25:04;;;;;;;62.83;39.00;;;;;;;;;;5050655;28;20045;-74
2023/04/23 07:27:30;;;;;;;57.85;37.83;;;;;;;;;;5052092;28;20081;-74
2023/04/23 07:29:57;;;;;;;61.60;39.42;;;;;;;;;;5047421;28;20044;-74
2023/04/23 07:32:26;;;;;;;64.30;39.03;;;;;;;;;;5051814;28;20244;-74
2023/04/23 07:34:52;;;;;;;60.30;38.60;;;;;;;;;;5034353;28;20490;-74
2023/04/23 07:37:20;;;;;;;55.17;36.97;;;;;;;;;;5033433;28;20075;-74
2023/04/23 07:39:46;;;;;;;60.63;37.92;;;;;;;;;;5013543;28;20057;-74
2023/04/23 07:42:13;;;;;;;56.97;35.92;;;;;;;;;;5031785;28;20568;-75
2023/04/23 07:44:39;;;;;;;56.35;36.05;;;;;;;;;;5030397;28;20061;-74
2023/04/23 07:47:05;;;;;;;50.55;35.08;;;;;;;;;;5042069;28;20052;-74
2023/04/23 07:49:31;;;;;;;51.05;34.65;;;;;;;;;;5035884;28;20068;-74
2023/04/23 07:51:57;;;;;;;50.80;34.90;;;;;;;;;;5055520;28;20048;-74
2023/04/23 07:54:24;;;;;;;50.08;35.17;;;;;;;;;;5051534;28;20040;-75
2023/04/23 07:56:50;;;;;;;49.83;32.72;;;;;;;;;;5055716;28;20440;-74
2023/04/23 07:59:16;;;;;;;50.30;34.38;;;;;;;;;;5055493;28;20079;-74
2023/04/23 08:01:42;;;;;;;50.53;33.83;;;;;;;;;;5055527;28;20075;-75
2023/04/23 08:04:08;;;;;;;48.42;33.92;;;;;;;;;;5055591;28;20044;-75
2023/04/23 08:06:34;;;;;;;46.42;32.70;;;;;;;;;;5011148;28;20057;-75
2023/04/23 08:09:05;;;;;;;47.10;32.55;;;;;;;;;;5035561;28;20053;-75
2023/04/23 08:11:34;;;;;;;47.03;30.23;;;;;;;;;;5017473;28;20492;-75
2023/04/23 08:14:03;;;;;;;46.83;32.45;;;;;;;;;;5035477;28;20045;-75
2023/04/23 08:16:29;;;;;;;43.90;29.98;;;;;;;;;;5035344;28;20041;-75
2023/04/23 08:18:55;;;;;;;43.78;31.45;;;;;;;;;;5001265;28;20055;-75
2023/04/23 08:21:23;;;;;;;42.58;29.23;;;;;;;;;;5035241;28;20045;-75
2023/04/23 08:23:49;;;;;;;39.47;29.50;;;;;;;;;;5034610;28;20395;-75
2023/04/23 08:26:15;;;;;;;42.10;30.20;;;;;;;;;;5034869;28;20037;-75
2023/04/23 08:28:41;;;;;;;41.53;29.40;;;;;;;;;;5017300;28;20041;-75
2023/04/23 08:31:07;;;;;;;39.60;26.05;;;;;;;;;;5037105;28;20409;-75
2023/04/23 08:33:33;;;;;;;42.58;30.00;;;;;;;;;;5053787;28;20143;-75
2023/04/23 08:36:00;;;;;;;36.58;26.17;;;;;;;;;;5054326;28;20071;-75
2023/04/23 08:38:26;;;;;;;40.55;27.98;;;;;;;;;;5045902;28;20048;-75
2023/04/23 08:40:55;;;;;;;38.60;28.42;;;;;;;;;;5036690;28;20045;-75
2023/04/23 08:43:24;;;;;;;35.80;26.27;;;;;;;;;;5054624;28;20045;-75
2023/04/23 08:45:50;;;;;;;35.75;25.42;;;;;;;;;;5054257;28;20053;-75
2023/04/23 08:48:16;;;;;;;36.05;25.40;;;;;;;;;;5052455;28;20406;-75
2023/04/23 08:50:43;;;;;;;33.78;24.80;;;;;;;;;;5054437;28;20460;-74
2023/04/23 08:53:09;;;;;;;33.72;24.67;;;;;;;;;;5049769;28;20044;-75
2023/04/23 08:55:35;;;;;;;31.08;22.80;;;;;;;;;;5034277;28;20045;-75
2023/04/23 08:58:05;;;;;;;34.00;23.50;;;;;;;;;;5041774;28;20423;-75
2023/04/23 09:00:31;;;;;;;32.53;23.90;;;;;;;;;;5045790;28;20067;-75
2023/04/23 09:02:58;;;;;;;31.35;23.15;;;;;;;;;;5052652;28;20485;-75
2023/04/23 09:05:24;;;;;;;32.47;22.98;;;;;;;;;;5027909;28;20493;-75
2023/04/23 09:07:50;;;;;;;31.50;23.70;;;;;;;;;;5052716;28;20052;-76
2023/04/23 09:10:16;;;;;;;31.02;21.08;;;;;;;;;;5052834;28;20564;-75
2023/04/23 09:12:42;;;;;;;30.15;21.67;;;;;;;;;;5036631;28;20047;-75
2023/04/23 09:15:09;;;;;;;27.13;19.92;;;;;;;;;;5035764;28;20123;-74
2023/04/23 09:17:37;;;;;;;28.90;20.15;;;;;;;;;;5046874;28;20033;-74
2023/04/23 09:20:04;;;;;;;26.73;20.05;;;;;;;;;;5052440;28;20095;-77
2023/04/23 09:22:38;;;;;;;26.90;19.63;;;;;;;;;;5053453;28;20060;-77
2023/04/23 09:25:04;;;;;;;27.63;20.73;;;;;;;;;;5052114;28;20052;-77
2023/04/23 09:27:30;;;;;;;27.33;19.02;;;;;;;;;;5045839;28;20084;-78
2023/04/23 09:29:58;;;;;;;27.38;19.70;;;;;;;;;;5053610;28;20045;-78
2023/04/23 09:32:34;;;;;;;25.25;19.05;;;;;;;;;;5053815;28;20057;-78
2023/04/23 09:35:04;;;;;;;22.10;15.70;;;;;;;;;;5016577;28;20041;-78
2023/04/23 09:37:31;;;;;;;22.42;15.60;;;;;;;;;;5031956;28;20410;-77
2023/04/23 09:40:00;;;;;;;20.45;15.25;;;;;;;;;;5032303;28;20118;-77
2023/04/23 09:42:27;;;;;;;20.73;15.07;;;;;;;;;;5033677;28;20517;-77
2023/04/23 09:44:57;;;;;;;19.73;13.20;;;;;;;;;;5015910;28;20405;-77
2023/04/23 09:47:24;;;;;;;20.27;14.07;;;;;;;;;;5033317;28;20049;-76
2023/04/23 09:49:50;;;;;;;17.48;11.80;;;;;;;;;;5033399;28;20045;-76
2023/04/23 09:52:17;;;;;;;18.60;13.20;;;;;;;;;;5017227;28;20103;-77
2023/04/23 09:54:45;;;;;;;18.00;12.77;;;;;;;;;;5006671;28;20533;-77
2023/04/23 09:57:11;;;;;;;16.48;12.00;;;;;;;;;;5014611;28;20048;-76
2023/04/23 09:59:37;;;;;;;17.10;12.00;;;;;;;;;;5018111;28;20052;-76
2023/04/23 10:02:05;;;;;;;16.45;12.35;;;;;;;;;;4999089;28;20158;-76
2023/04/23 10:04:31;;;;;;;16.23;11.95;;;;;;;;;;4999176;28;20095;-77
2023/04/23 10:06:58;;;;;;;17.85;13.02;;;;;;;;;;5033283;28;20120;-78
2023/04/23 10:09:25;;;;;;;17.42;12.15;;;;;;;;;;5033244;28;20056;-77
2023/04/23 10:11:58;;;;;;;16.88;11.48;;;;;;;;;;5033019;28;20469;-77
2023/04/23 10:14:28;;;;;;;16.85;10.73;;;;;;;;;;5033351;28;20045;-77
2023/04/23 10:16:58;;;;;;;15.88;10.18;;;;;;;;;;5033234;28;20089;-77
2023/04/23 10:19:26;;;;;;;14.65;9.30;;;;;;;;;;5032960;28;20152;-77
2023/04/23 10:22:03;;;;;;;15.90;7.72;;;;;;;;;;5031246;28;20057;-77
2023/04/23 10:24:31;;;;;;;13.50;6.88;;;;;;;;;;5031235;28;20041;-77
2023/04/23 10:26:59;;;;;;;12.50;6.63;;;;;;;;;;5031987;28;20044;-77
2023/04/23 10:29:30;;;;;;;12.07;6.90;;;;;;;;;;5012996;28;20505;-78
2023/04/23 10:31:57;;;;;;;15.63;6.03;;;;;;;;;;5050359;28;20655;-78
2023/04/23 10:34:24;;;;;;;12.90;5.97;;;;;;;;;;5054296;28;20060;-78
2023/04/23 10:36:51;;;;;;;11.32;6.38;;;;;;;;;;5054436;28;20052;-77
2023/04/23 10:39:17;;;;;;;11.27;5.40;;;;;;;;;;5072822;28;20129;-78
2023/04/23 10:41:44;;;;;;;10.75;4.90;;;;;;;;;;5072412;28;20044;-78
2023/04/23 10:44:15;;;;;;;8.98;4.68;;;;;;;;;;5053932;28;20131;-78
2023/04/23 10:46:50;;;;;;;7.55;4.22;;;;;;;;;;5069623;28;20055;-78
2023/04/23 10:49:16;;;;;;;8.90;4.32;;;;;;;;;;5071195;28;20497;-77
2023/04/23 10:51:45;;;;;;;11.20;4.38;;;;;;;;;;5070684;28;20054;-77
2023/04/23 10:54:13;;;;;;;9.95;4.05;;;;;;;;;;5059360;28;20037;-77
2023/04/23 10:56:40;;;;;;;11.32;3.97;;;;;;;;;;5016237;28;20389;-78
2023/04/23 10:59:19;;;;;;;11.32;4.03;;;;;;;;;;5016751;28;20047;-77
2023/04/23 11:01:47;;;;;;;9.38;4.07;;;;;;;;;;5031667;28;20064;-77
2023/04/23 11:04:23;;;;;;;8.80;4.30;;;;;;;;;;5034695;28;20118;-76
2023/04/23 11:06:50;;;;;;;8.45;4.13;;;;;;;;;;5051664;28;20037;-77
2023/04/23 11:09:35;;;;;;;11.45;4.50;;;;;;;;;;5050341;28;20049;-71
2023/04/23 11:12:02;;;;;;;9.03;4.00;;;;;;;;;;5048940;28;20049;-72
2023/04/23 11:14:35;;;;;;;10.27;4.00;;;;;;;;;;5049587;28;20142;-72
2023/04/23 11:17:02;;;;;;;8.80;3.90;;;;;;;;;;5031370;28;20053;-72
2023/04/23 11:19:28;;;;;;;9.70;3.80;;;;;;;;;;5048997;28;20041;-73
2023/04/23 11:21:57;;;;;;;7.30;2.97;;;;;;;;;;5048546;28;20048;-72
2023/04/23 11:24:24;;;;;;;8.13;3.00;;;;;;;;;;5049791;28;20045;-72
2023/04/23 11:26:55;;;;;;;8.63;2.70;;;;;;;;;;5052871;28;20132;-73
2023/04/23 11:29:22;;;;;;;10.02;2.78;;;;;;;;;;5035080;28;20556;-72
2023/04/23 11:31:49;;;;;;;8.90;3.00;;;;;;;;;;5052717;28;20053;-73
2023/04/23 11:34:16;;;;;;;7.45;3.13;;;;;;;;;;5053003;28;20053;-73
2023/04/23 11:36:42;;;;;;;8.35;2.97;;;;;;;;;;5053293;28;20351;-78
2023/04/23 11:39:09;;;;;;;8.70;2.72;;;;;;;;;;5036749;28;20577;-80
2023/04/23 11:41:35;;;;;;;7.45;2.70;;;;;;;;;;5054262;28;20092;-79
2023/04/23 11:44:03;;;;;;;8.27;3.17;;;;;;;;;;5056006;28;20044;-79
2023/04/23 11:46:29;;;;;;;7.85;2.90;;;;;;;;;;5055727;28;20049;-80
2023/04/23 11:48:55;;;;;;;6.07;2.60;;;;;;;;;;5054280;28;20485;-79
2023/04/23 11:51:27;;;;;;;7.72;2.78;;;;;;;;;;5055603;28;20048;-80
2023/04/23 11:53:53;;;;;;;6.28;2.60;;;;;;;;;;5039835;28;20414;-81
2023/04/23 11:56:20;;;;;;;7.07;2.97;;;;;;;;;;5029953;28;20045;-80
2023/04/23 11:58:46;;;;;;;5.63;2.78;;;;;;;;;;5035578;28;20057;-81
2023/04/23 12:01:12;;;;;;;7.65;2.80;;;;;;;;;;5035476;28;20137;-81
2023/04/23 12:03:38;;;;;;;7.53;2.83;;;;;;;;;;5036490;28;20128;-81
2023/04/23 12:06:05;;;;;;;6.35;2.55;;;;;;;;;;5017151;28;20064;-80
2023/04/23 12:08:36;;;;;;;6.40;2.75;;;;;;;;;;5035664;28;20482;-81
2023/04/23 12:11:05;;;;;;;6.00;2.47;;;;;;;;;;5015966;28;20041;-80
2023/04/23 12:13:34;;;;;;;6.25;2.70;;;;;;;;;;4999079;28;20049;-82
2023/04/23 12:16:01;;;;;;;6.63;2.72;;;;;;;;;;4998729;28;20049;-80
2023/04/23 12:18:31;;;;;;;6.63;2.60;;;;;;;;;;5036279;28;20041;-80
2023/04/23 12:21:24;;;;;;;5.95;2.75;;;;;;;;;;5017355;28;20493;-81
2023/04/23 12:23:51;;;;;;;6.63;2.63;;;;;;;;;;5031828;28;20057;-80
2023/04/23 12:26:19;;;;;;;7.05;2.40;;;;;;;;;;5017202;28;20437;-81
2023/04/23 12:28:55;;;;;;;6.65;2.50;;;;;;;;;;5017708;28;20432;-80
2023/04/23 12:31:26;;;;;;;6.88;2.10;;;;;;;;;;5039104;28;20072;-80
2023/04/23 12:34:06;;;;;;;5.68;2.20;;;;;;;;;;5049934;28;20056;-80
2023/04/23 12:36:32;;;;;;;5.32;2.10;;;;;;;;;;5053753;28;20037;-81
2023/04/23 12:39:17;;;;;;;6.30;2.00;;;;;;;;;;5033983;28;20052;-81
2023/04/23 12:41:43;;;;;;;6.93;2.40;;;;;;;;;;5048133;28;20048;-81
2023/04/23 12:44:09;;;;;;;7.53;2.00;;;;;;;;;;5053431;28;20799;-82
2023/04/23 12:46:35;;;;;;;6.28;2.15;;;;;;;;;;5054198;28;20049;-82
2023/04/23 12:49:01;;;;;;;7.15;2.40;;;;;;;;;;5050787;28;20064;-81
2023/04/23 12:51:27;;;;;;;7.30;2.10;;;;;;;;;;5053984;28;20059;-82
2023/04/23 12:53:53;;;;;;;5.25;2.05;;;;;;;;;;5046203;28;20041;-83
2023/04/23 12:56:20;;;;;;;6.43;1.90;;;;;;;;;;5041230;28;20041;-81
2023/04/23 12:58:46;;;;;;;6.45;2.28;;;;;;;;;;5048529;28;20110;-80
2023/04/23 13:01:13;;;;;;;7.10;2.03;;;;;;;;;;5051172;28;20080;-81
2023/04/23 13:03:39;;;;;;;5.68;2.00;;;;;;;;;;5052570;28;20044;-80
2023/04/23 13:06:06;;;;;;;5.30;2.40;;;;;;;;;;5052397;28;20092;-80
2023/04/23 13:08:33;;;;;;;6.30;2.10;;;;;;;;;;5045921;28;20041;-81
2023/04/23 13:10:59;;;;;;;6.03;1.67;;;;;;;;;;5053356;28;20084;-81
2023/04/23 13:13:26;;;;;;;5.88;1.70;;;;;;;;;;5045013;28;20095;-81
2023/04/23 13:15:52;;;;;;;7.75;1.92;;;;;;;;;;5052225;28;20443;-81
2023/04/23 13:18:18;;;;;;;8.52;1.75;;;;;;;;;;5053226;28;20045;-82
2023/04/23 13:20:44;;;;;;;4.82;1.80;;;;;;;;;;5054033;28;20417;-82
2023/04/23 13:23:11;;;;;;;10.13;2.28;;;;;;;;;;5054092;28;20422;-82
2023/04/23 13:25:37;;;;;;;7.53;1.90;;;;;;;;;;5046589;28;20064;-82
2023/04/23 13:28:03;;;;;;;7.57;2.22;;;;;;;;;;5054165;28;20139;-81
2023/04/23 13:30:29;;;;;;;8.13;2.00;;;;;;;;;;5053318;28;20041;-81
2023/04/23 13:32:56;;;;;;;6.70;2.03;;;;;;;;;;5048812;28;20429;-81
2023/04/23 13:35:23;;;;;;;5.38;2.05;;;;;;;;;;5028195;28;20060;-81
2023/04/23 13:37:49;;;;;;;7.72;2.38;;;;;;;;;;5053865;28;20044;-80
2023/04/23 13:40:15;;;;;;;8.60;2.40;;;;;;;;;;5053525;28;20068;-80
2023/04/23 13:42:41;;;;;;;7.80;2.20;;;;;;;;;;5051810;28;20421;-80
2023/04/23 13:45:07;;;;;;;7.68;2.42;;;;;;;;;;5033799;28;20466;-78
2023/04/23 13:47:33;;;;;;;8.27;2.35;;;;;;;;;;5044654;28;20045;-78
2023/04/23 13:50:05;;;;;;;7.40;2.50;;;;;;;;;;5050837;28;20044;-78
2023/04/23 13:52:31;;;;;;;6.63;2.10;;;;;;;;;;5028010;28;20127;-78
2023/04/23 13:54:59;;;;;;;6.55;1.95;;;;;;;;;;5035126;28;20096;-78
2023/04/23 13:57:26;;;;;;;7.50;2.20;;;;;;;;;;5024192;28;20046;-78
2023/04/23 13:59:54;;;;;;;7.90;2.10;;;;;;;;;;5031180;28;20060;-78
2023/04/23 14:02:20;;;;;;;6.85;2.17;;;;;;;;;;5031526;28;20456;-78
2023/04/23 14:04:46;;;;;;;6.63;2.17;;;;;;;;;;5031471;28;20103;-78
2023/04/23 14:07:12;;;;;;;6.82;1.92;;;;;;;;;;5032021;28;20135;-79
2023/04/23 14:09:38;;;;;;;8.32;1.95;;;;;;;;;;5026119;28;20528;-76
2023/04/23 14:12:04;;;;;;;7.35;2.10;;;;;;;;;;5031683;28;20481;-78
2023/04/23 14:14:30;;;;;;;8.70;2.13;;;;;;;;;;5025017;28;20041;-79
2023/04/23 14:16:56;;;;;;;6.40;2.00;;;;;;;;;;5031922;28;20046;-79
2023/04/23 14:19:22;;;;;;;7.88;2.10;;;;;;;;;;5023960;28;20048;-78
2023/04/23 14:21:49;;;;;;;4.72;1.73;;;;;;;;;;5030482;28;20482;-78